EBLG/LGG METAR and TAF weather

Enter ICAO airport designator
Station Type Date Time Source
EBLG METAR 2019/10/21 04:50 UTC NOAA

EBLG 210450Z 15007KT 130V190 6000 FEW025 12/11 Q1011 NOSIG


Station Type Date Time Source
EBLG Decoded METAR 2019/10/21 04:50 UTC NOAA

Bierset, Belgium (EBLG) 50-39N 005-27E 178M
Oct 21, 2019 - 12:50 AM EDT / 2019.10.21 0450 UTC
Wind: from the SSE (150 degrees) at 8 MPH (7 KT) (direction variable):0
Visibility: 3 mile(s):0
Sky conditions: mostly clear
Temperature: 53 F (12 C)
Dew Point: 51 F (11 C)
Relative Humidity: 93%
Pressure (altimeter): 29.85 in. Hg (1011 hPa)
ob: EBLG 210450Z 15007KT 130V190 6000 FEW025 12/11 Q1011 NOSIG
cycle: 5

Station Type Date Time Source
EBLG TAF 2019/10/20 18:27 UTC NOAA

TAF EBLG 201710Z 2018/2124 04007KT 6000 -RA SCT004 BKN006
TEMPO 2018/2104 2500 RADZ BKN004 PROB40
TEMPO 2023/2104 0500 FG BKN002
BECMG 2104/2106 18012KT SCT010 BKN016
TEMPO 2112/2117 BKN010

Example: see airport list